sensor_id;sensor_type;location;lat;lon;timestamp;temperature;humidity
18948;DHT22;9607;51.600;7.558;2023-02-11T00:00:31;7.00;99.90
18948;DHT22;9607;51.600;7.558;2023-02-11T00:02:58;6.90;99.90
18948;DHT22;9607;51.600;7.558;2023-02-11T00:05:25;6.90;99.90
18948;DHT22;9607;51.600;7.558;2023-02-11T00:07:53;6.90;99.90
18948;DHT22;9607;51.600;7.558;2023-02-11T00:10:20;6.80;99.90
18948;DHT22;9607;51.600;7.558;2023-02-11T00:12:47;6.80;99.90
18948;DHT22;9607;51.600;7.558;2023-02-11T00:15:14;6.80;99.90
18948;DHT22;9607;51.600;7.558;2023-02-11T00:17:41;6.80;99.90
18948;DHT22;9607;51.600;7.558;2023-02-11T00:20:11;6.70;99.90
18948;DHT22;9607;51.600;7.558;2023-02-11T00:22:38;6.70;99.90
18948;DHT22;9607;51.600;7.558;2023-02-11T00:25:06;6.70;99.90
18948;DHT22;9607;51.600;7.558;2023-02-11T00:27:34;6.70;99.90
18948;DHT22;9607;51.600;7.558;2023-02-11T00:30:02;6.70;99.90
18948;DHT22;9607;51.600;7.558;2023-02-11T00:32:29;6.70;99.90
18948;DHT22;9607;51.600;7.558;2023-02-11T00:34:56;6.80;99.90
18948;DHT22;9607;51.600;7.558;2023-02-11T00:37:23;6.80;99.90
18948;DHT22;9607;51.600;7.558;2023-02-11T00:39:50;6.80;99.90
18948;DHT22;9607;51.600;7.558;2023-02-11T00:42:18;6.80;99.90
18948;DHT22;9607;51.600;7.558;2023-02-11T00:44:45;6.80;99.90
18948;DHT22;9607;51.600;7.558;2023-02-11T00:47:11;6.90;99.90
18948;DHT22;9607;51.600;7.558;2023-02-11T00:49:38;6.90;99.90
18948;DHT22;9607;51.600;7.558;2023-02-11T00:52:06;6.90;99.90
18948;DHT22;9607;51.600;7.558;2023-02-11T00:54:32;6.90;99.90
18948;DHT22;9607;51.600;7.558;2023-02-11T00:56:59;6.90;99.90
18948;DHT22;9607;51.600;7.558;2023-02-11T00:59:27;6.90;99.90
18948;DHT22;9607;51.600;7.558;2023-02-11T01:01:54;6.90;99.90
18948;DHT22;9607;51.600;7.558;2023-02-11T01:04:21;7.00;99.90
18948;DHT22;9607;51.600;7.558;2023-02-11T01:06:48;7.00;99.90
18948;DHT22;9607;51.600;7.558;2023-02-11T01:09:15;7.00;99.90
18948;DHT22;9607;51.600;7.558;2023-02-11T01:11:42;7.10;99.90
18948;DHT22;9607;51.600;7.558;2023-02-11T01:14:09;7.00;99.90
18948;DHT22;9607;51.600;7.558;2023-02-11T01:16:37;7.00;99.90
18948;DHT22;9607;51.600;7.558;2023-02-11T01:19:05;7.00;99.90
18948;DHT22;9607;51.600;7.558;2023-02-11T01:21:31;7.00;99.90
18948;DHT22;9607;51.600;7.558;2023-02-11T01:23:58;7.00;99.90
18948;DHT22;9607;51.600;7.558;2023-02-11T01:26:25;7.10;99.90
18948;DHT22;9607;51.600;7.558;2023-02-11T01:28:52;7.10;99.90
18948;DHT22;9607;51.600;7.558;2023-02-11T01:31:18;7.10;99.90
18948;DHT22;9607;51.600;7.558;2023-02-11T01:33:47;7.10;99.90
18948;DHT22;9607;51.600;7.558;2023-02-11T01:36:14;7.10;99.90
18948;DHT22;9607;51.600;7.558;2023-02-11T01:38:40;7.10;99.90
18948;DHT22;9607;51.600;7.558;2023-02-11T01:41:11;7.10;99.90
18948;DHT22;9607;51.600;7.558;2023-02-11T01:43:40;7.10;99.90
18948;DHT22;9607;51.600;7.558;2023-02-11T01:46:29;7.10;99.90
18948;DHT22;9607;51.600;7.558;2023-02-11T01:49:02;7.10;99.90
18948;DHT22;9607;51.600;7.558;2023-02-11T01:51:33;7.10;99.90
18948;DHT22;9607;51.600;7.558;2023-02-11T01:54:02;7.10;99.90
18948;DHT22;9607;51.600;7.558;2023-02-11T01:56:50;7.10;99.90
18948;DHT22;9607;51.600;7.558;2023-02-11T01:59:40;7.10;99.90
18948;DHT22;9607;51.600;7.558;2023-02-11T02:02:10;7.00;99.90
18948;DHT22;9607;51.600;7.558;2023-02-11T02:04:43;7.10;99.90
18948;DHT22;9607;51.600;7.558;2023-02-11T02:07:18;7.00;99.90
18948;DHT22;9607;51.600;7.558;2023-02-11T02:09:51;7.10;99.90
18948;DHT22;9607;51.600;7.558;2023-02-11T02:12:20;7.00;99.90
18948;DHT22;9607;51.600;7.558;2023-02-11T02:14:47;7.00;99.90
18948;DHT22;9607;51.600;7.558;2023-02-11T02:17:23;7.00;99.90
18948;DHT22;9607;51.600;7.558;2023-02-11T02:20:12;7.00;99.90
18948;DHT22;9607;51.600;7.558;2023-02-11T02:22:56;7.00;99.90
18948;DHT22;9607;51.600;7.558;2023-02-11T02:26:05;7.10;99.90
18948;DHT22;9607;51.600;7.558;2023-02-11T02:31:48;7.10;99.90
18948;DHT22;9607;51.600;7.558;2023-02-11T02:34:26;7.00;99.90
18948;DHT22;9607;51.600;7.558;2023-02-11T02:37:03;7.00;99.90
18948;DHT22;9607;51.600;7.558;2023-02-11T02:39:34;7.00;99.90
18948;DHT22;9607;51.600;7.558;2023-02-11T02:42:02;7.00;99.90
18948;DHT22;9607;51.600;7.558;2023-02-11T02:44:30;7.00;99.90
18948;DHT22;9607;51.600;7.558;2023-02-11T02:46:57;7.00;99.90
18948;DHT22;9607;51.600;7.558;2023-02-11T02:49:25;7.00;99.90
18948;DHT22;9607;51.600;7.558;2023-02-11T02:52:11;7.00;99.90
18948;DHT22;9607;51.600;7.558;2023-02-11T02:55:05;7.00;99.90
18948;DHT22;9607;51.600;7.558;2023-02-11T02:57:40;7.00;99.90
18948;DHT22;9607;51.600;7.558;2023-02-11T03:00:19;7.00;99.90
18948;DHT22;9607;51.600;7.558;2023-02-11T03:02:57;7.00;99.90
18948;DHT22;9607;51.600;7.558;2023-02-11T03:05:38;7.00;99.90
18948;DHT22;9607;51.600;7.558;2023-02-11T03:08:13;7.00;99.90
18948;DHT22;9607;51.600;7.558;2023-02-11T03:10:44;6.90;99.90
18948;DHT22;9607;51.600;7.558;2023-02-11T03:13:13;7.00;99.90
18948;DHT22;9607;51.600;7.558;2023-02-11T03:15:45;7.00;99.90
18948;DHT22;9607;51.600;7.558;2023-02-11T03:18:16;6.90;99.90
18948;DHT22;9607;51.600;7.558;2023-02-11T03:20:47;6.90;99.90
18948;DHT22;9607;51.600;7.558;2023-02-11T03:23:17;6.90;99.90
18948;DHT22;9607;51.600;7.558;2023-02-11T03:25:49;6.90;99.90
18948;DHT22;9607;51.600;7.558;2023-02-11T03:28:24;6.90;99.90
18948;DHT22;9607;51.600;7.558;2023-02-11T03:30:56;6.90;99.90
18948;DHT22;9607;51.600;7.558;2023-02-11T03:33:29;6.90;99.90
18948;DHT22;9607;51.600;7.558;2023-02-11T03:36:03;6.90;99.90
18948;DHT22;9607;51.600;7.558;2023-02-11T03:38:32;7.00;99.90
18948;DHT22;9607;51.600;7.558;2023-02-11T03:41:05;6.90;99.90
18948;DHT22;9607;51.600;7.558;2023-02-11T03:43:37;6.90;99.90
18948;DHT22;9607;51.600;7.558;2023-02-11T03:46:06;6.90;99.90
18948;DHT22;9607;51.600;7.558;2023-02-11T03:48:37;6.90;99.90
18948;DHT22;9607;51.600;7.558;2023-02-11T03:51:07;6.90;99.90
18948;DHT22;9607;51.600;7.558;2023-02-11T03:53:40;6.90;99.90
18948;DHT22;9607;51.600;7.558;2023-02-11T03:56:12;6.90;99.90
18948;DHT22;9607;51.600;7.558;2023-02-11T03:58:40;6.90;99.90
18948;DHT22;9607;51.600;7.558;2023-02-11T04:01:09;6.90;99.90
18948;DHT22;9607;51.600;7.558;2023-02-11T04:03:36;6.90;99.90
18948;DHT22;9607;51.600;7.558;2023-02-11T04:06:04;6.80;99.90
18948;DHT22;9607;51.600;7.558;2023-02-11T04:08:31;6.80;99.90
18948;DHT22;9607;51.600;7.558;2023-02-11T04:10:58;6.80;99.90
18948;DHT22;9607;51.600;7.558;2023-02-11T04:13:25;6.80;99.90
18948;DHT22;9607;51.600;7.558;2023-02-11T04:18:25;6.80;99.90
18948;DHT22;9607;51.600;7.558;2023-02-11T04:20:52;6.80;99.90
18948;DHT22;9607;51.600;7.558;2023-02-11T04:23:20;6.80;99.90
18948;DHT22;9607;51.600;7.558;2023-02-11T04:25:48;6.70;99.90
18948;DHT22;9607;51.600;7.558;2023-02-11T04:28:15;6.70;99.90
18948;DHT22;9607;51.600;7.558;2023-02-11T04:30:42;6.70;99.90
18948;DHT22;9607;51.600;7.558;2023-02-11T04:33:09;6.70;99.90
18948;DHT22;9607;51.600;7.558;2023-02-11T04:35:36;6.70;99.90
18948;DHT22;9607;51.600;7.558;2023-02-11T04:38:02;6.60;99.90
18948;DHT22;9607;51.600;7.558;2023-02-11T04:40:31;6.70;99.90
18948;DHT22;9607;51.600;7.558;2023-02-11T04:42:58;6.60;99.90
18948;DHT22;9607;51.600;7.558;2023-02-11T04:45:26;6.60;99.90
18948;DHT22;9607;51.600;7.558;2023-02-11T04:47:53;6.60;99.90
18948;DHT22;9607;51.600;7.558;2023-02-11T04:50:20;6.70;99.90
18948;DHT22;9607;51.600;7.558;2023-02-11T04:52:46;6.60;99.90
18948;DHT22;9607;51.600;7.558;2023-02-11T04:55:16;6.70;99.90
18948;DHT22;9607;51.600;7.558;2023-02-11T04:57:45;6.60;99.90
18948;DHT22;9607;51.600;7.558;2023-02-11T05:00:13;6.50;99.90
18948;DHT22;9607;51.600;7.558;2023-02-11T05:02:40;6.60;99.90
18948;DHT22;9607;51.600;7.558;2023-02-11T05:05:07;6.50;99.90
18948;DHT22;9607;51.600;7.558;2023-02-11T05:07:34;6.50;99.90
18948;DHT22;9607;51.600;7.558;2023-02-11T05:10:01;6.50;99.90
18948;DHT22;9607;51.600;7.558;2023-02-11T05:12:28;6.50;99.90
18948;DHT22;9607;51.600;7.558;2023-02-11T05:14:56;6.40;99.90
18948;DHT22;9607;51.600;7.558;2023-02-11T05:17:23;6.40;99.90
18948;DHT22;9607;51.600;7.558;2023-02-11T05:19:49;6.40;99.90
18948;DHT22;9607;51.600;7.558;2023-02-11T05:22:16;6.40;99.90
18948;DHT22;9607;51.600;7.558;2023-02-11T05:24:43;6.40;99.90
18948;DHT22;9607;51.600;7.558;2023-02-11T05:27:10;6.30;99.90
18948;DHT22;9607;51.600;7.558;2023-02-11T05:29:37;6.50;99.90
18948;DHT22;9607;51.600;7.558;2023-02-11T05:32:06;6.40;99.90
18948;DHT22;9607;51.600;7.558;2023-02-11T05:34:34;6.30;99.90
18948;DHT22;9607;51.600;7.558;2023-02-11T05:37:01;6.30;99.90
18948;DHT22;9607;51.600;7.558;2023-02-11T05:39:28;6.30;99.90
18948;DHT22;9607;51.600;7.558;2023-02-11T05:41:55;6.40;99.90
18948;DHT22;9607;51.600;7.558;2023-02-11T05:44:22;6.40;99.90
18948;DHT22;9607;51.600;7.558;2023-02-11T05:46:49;6.30;99.90
18948;DHT22;9607;51.600;7.558;2023-02-11T05:49:17;6.30;99.90
18948;DHT22;9607;51.600;7.558;2023-02-11T05:51:48;6.30;99.90
18948;DHT22;9607;51.600;7.558;2023-02-11T05:54:15;6.30;99.90
18948;DHT22;9607;51.600;7.558;2023-02-11T05:56:42;6.30;99.90
18948;DHT22;9607;51.600;7.558;2023-02-11T05:59:12;6.30;99.90
18948;DHT22;9607;51.600;7.558;2023-02-11T06:01:39;6.30;99.90
18948;DHT22;9607;51.600;7.558;2023-02-11T06:04:06;6.30;99.90
18948;DHT22;9607;51.600;7.558;2023-02-11T06:06:35;6.30;99.90
18948;DHT22;9607;51.600;7.558;2023-02-11T06:09:02;6.30;99.90
18948;DHT22;9607;51.600;7.558;2023-02-11T06:11:29;6.30;99.90
18948;DHT22;9607;51.600;7.558;2023-02-11T06:13:56;6.20;99.90
18948;DHT22;9607;51.600;7.558;2023-02-11T06:16:23;6.30;99.90
18948;DHT22;9607;51.600;7.558;2023-02-11T06:18:50;6.30;99.90
18948;DHT22;9607;51.600;7.558;2023-02-11T06:21:17;6.30;99.90
18948;DHT22;9607;51.600;7.558;2023-02-11T06:23:45;6.30;99.90
18948;DHT22;9607;51.600;7.558;2023-02-11T06:26:16;6.30;99.90
18948;DHT22;9607;51.600;7.558;2023-02-11T06:28:44;6.40;99.90
18948;DHT22;9607;51.600;7.558;2023-02-11T06:31:11;6.30;99.90
18948;DHT22;9607;51.600;7.558;2023-02-11T06:33:39;6.30;99.90
18948;DHT22;9607;51.600;7.558;2023-02-11T06:36:13;6.30;99.90
18948;DHT22;9607;51.600;7.558;2023-02-11T06:38:41;6.40;99.90
18948;DHT22;9607;51.600;7.558;2023-02-11T06:41:10;6.30;99.90
18948;DHT22;9607;51.600;7.558;2023-02-11T06:43:38;6.30;99.90
18948;DHT22;9607;51.600;7.558;2023-02-11T06:46:06;6.40;99.90
18948;DHT22;9607;51.600;7.558;2023-02-11T06:48:34;6.30;99.90
18948;DHT22;9607;51.600;7.558;2023-02-11T06:51:01;6.40;99.90
18948;DHT22;9607;51.600;7.558;2023-02-11T06:53:28;6.40;99.90
18948;DHT22;9607;51.600;7.558;2023-02-11T06:55:55;6.40;99.90
18948;DHT22;9607;51.600;7.558;2023-02-11T06:58:23;6.40;99.90
18948;DHT22;9607;51.600;7.558;2023-02-11T07:00:50;6.40;99.90
18948;DHT22;9607;51.600;7.558;2023-02-11T07:03:18;6.40;99.90
18948;DHT22;9607;51.600;7.558;2023-02-11T07:05:45;6.40;99.90
18948;DHT22;9607;51.600;7.558;2023-02-11T07:08:12;6.40;99.90
18948;DHT22;9607;51.600;7.558;2023-02-11T07:10:38;6.40;99.90
18948;DHT22;9607;51.600;7.558;2023-02-11T07:13:05;6.40;99.90
18948;DHT22;9607;51.600;7.558;2023-02-11T07:15:35;6.40;99.90
18948;DHT22;9607;51.600;7.558;2023-02-11T07:18:02;6.40;99.90
18948;DHT22;9607;51.600;7.558;2023-02-11T07:20:29;6.40;99.90
18948;DHT22;9607;51.600;7.558;2023-02-11T07:22:56;6.40;99.90
18948;DHT22;9607;51.600;7.558;2023-02-11T07:25:25;6.40;99.90
18948;DHT22;9607;51.600;7.558;2023-02-11T07:27:52;6.40;99.90
18948;DHT22;9607;51.600;7.558;2023-02-11T07:30:19;6.40;99.90
18948;DHT22;9607;51.600;7.558;2023-02-11T07:32:47;6.40;99.90
18948;DHT22;9607;51.600;7.558;2023-02-11T07:35:16;6.40;99.90
18948;DHT22;9607;51.600;7.558;2023-02-11T07:37:43;6.50;99.90
18948;DHT22;9607;51.600;7.558;2023-02-11T07:40:10;6.50;99.90
18948;DHT22;9607;51.600;7.558;2023-02-11T07:42:37;6.50;99.90
18948;DHT22;9607;51.600;7.558;2023-02-11T07:45:06;6.50;99.90
18948;DHT22;9607;51.600;7.558;2023-02-11T07:47:33;6.50;99.90
18948;DHT22;9607;51.600;7.558;2023-02-11T07:50:01;6.50;99.90
18948;DHT22;9607;51.600;7.558;2023-02-11T07:52:28;6.50;99.90
18948;DHT22;9607;51.600;7.558;2023-02-11T07:54:55;6.50;99.90
18948;DHT22;9607;51.600;7.558;2023-02-11T07:57:22;6.60;99.90
18948;DHT22;9607;51.600;7.558;2023-02-11T07:59:48;6.60;99.90
18948;DHT22;9607;51.600;7.558;2023-02-11T08:02:15;6.60;99.90
18948;DHT22;9607;51.600;7.558;2023-02-11T08:04:45;6.60;99.90
18948;DHT22;9607;51.600;7.558;2023-02-11T08:07:15;6.60;99.90
18948;DHT22;9607;51.600;7.558;2023-02-11T08:09:42;6.70;99.90
18948;DHT22;9607;51.600;7.558;2023-02-11T08:12:09;6.70;99.90
18948;DHT22;9607;51.600;7.558;2023-02-11T08:14:36;6.70;99.90
18948;DHT22;9607;51.600;7.558;2023-02-11T08:17:03;6.70;99.90
18948;DHT22;9607;51.600;7.558;2023-02-11T08:19:30;6.70;99.90
18948;DHT22;9607;51.600;7.558;2023-02-11T08:21:57;6.70;99.90
18948;DHT22;9607;51.600;7.558;2023-02-11T08:24:27;6.80;99.90
18948;DHT22;9607;51.600;7.558;2023-02-11T08:26:53;6.80;99.90
18948;DHT22;9607;51.600;7.558;2023-02-11T08:29:20;6.80;99.90
18948;DHT22;9607;51.600;7.558;2023-02-11T08:31:47;6.80;99.90
18948;DHT22;9607;51.600;7.558;2023-02-11T08:34:14;6.80;99.90
18948;DHT22;9607;51.600;7.558;2023-02-11T08:36:43;6.80;99.90
18948;DHT22;9607;51.600;7.558;2023-02-11T08:39:13;6.90;99.90
18948;DHT22;9607;51.600;7.558;2023-02-11T08:41:41;6.80;99.90
18948;DHT22;9607;51.600;7.558;2023-02-11T08:44:09;6.90;99.90
18948;DHT22;9607;51.600;7.558;2023-02-11T08:46:36;6.90;99.90
18948;DHT22;9607;51.600;7.558;2023-02-11T08:49:02;6.90;99.90
18948;DHT22;9607;51.600;7.558;2023-02-11T08:51:31;6.90;99.90
18948;DHT22;9607;51.600;7.558;2023-02-11T08:53:59;6.90;99.90
18948;DHT22;9607;51.600;7.558;2023-02-11T08:56:26;6.90;99.90
18948;DHT22;9607;51.600;7.558;2023-02-11T08:58:54;7.00;99.90
18948;DHT22;9607;51.600;7.558;2023-02-11T09:01:27;7.00;99.90
18948;DHT22;9607;51.600;7.558;2023-02-11T09:03:54;7.00;99.90
18948;DHT22;9607;51.600;7.558;2023-02-11T09:06:22;7.00;99.90
18948;DHT22;9607;51.600;7.558;2023-02-11T09:08:51;7.00;99.90
18948;DHT22;9607;51.600;7.558;2023-02-11T09:11:21;7.10;99.90
18948;DHT22;9607;51.600;7.558;2023-02-11T09:13:48;7.10;99.90
18948;DHT22;9607;51.600;7.558;2023-02-11T09:16:19;7.10;99.90
18948;DHT22;9607;51.600;7.558;2023-02-11T09:18:46;7.20;99.90
18948;DHT22;9607;51.600;7.558;2023-02-11T09:21:14;7.20;99.90
18948;DHT22;9607;51.600;7.558;2023-02-11T09:23:41;7.30;99.90
18948;DHT22;9607;51.600;7.558;2023-02-11T09:26:11;7.40;99.90
18948;DHT22;9607;51.600;7.558;2023-02-11T09:28:39;7.40;99.90
18948;DHT22;9607;51.600;7.558;2023-02-11T09:31:06;7.50;99.90
18948;DHT22;9607;51.600;7.558;2023-02-11T09:33:34;7.50;99.90
18948;DHT22;9607;51.600;7.558;2023-02-11T09:36:02;7.60;99.90
18948;DHT22;9607;51.600;7.558;2023-02-11T09:38:28;7.70;99.90
18948;DHT22;9607;51.600;7.558;2023-02-11T09:40:55;7.70;99.90
18948;DHT22;9607;51.600;7.558;2023-02-11T09:43:27;7.80;99.90
18948;DHT22;9607;51.600;7.558;2023-02-11T09:45:56;7.80;99.90
18948;DHT22;9607;51.600;7.558;2023-02-11T09:48:23;7.80;99.90
18948;DHT22;9607;51.600;7.558;2023-02-11T09:50:54;7.80;99.90
18948;DHT22;9607;51.600;7.558;2023-02-11T09:53:24;7.90;99.90
18948;DHT22;9607;51.600;7.558;2023-02-11T09:55:52;7.90;99.90
18948;DHT22;9607;51.600;7.558;2023-02-11T09:58:25;7.90;99.90
18948;DHT22;9607;51.600;7.558;2023-02-11T10:00:59;7.90;99.90
18948;DHT22;9607;51.600;7.558;2023-02-11T10:03:40;7.90;99.90
18948;DHT22;9607;51.600;7.558;2023-02-11T10:06:21;7.90;99.90
18948;DHT22;9607;51.600;7.558;2023-02-11T10:08:58;7.90;99.90
18948;DHT22;9607;51.600;7.558;2023-02-11T10:11:32;8.00;99.90
18948;DHT22;9607;51.600;7.558;2023-02-11T10:14:10;8.00;99.90
18948;DHT22;9607;51.600;7.558;2023-02-11T10:16:52;8.00;99.90
18948;DHT22;9607;51.600;7.558;2023-02-11T10:19:33;8.10;99.90
18948;DHT22;9607;51.600;7.558;2023-02-11T10:22:09;8.10;99.90
18948;DHT22;9607;51.600;7.558;2023-02-11T10:24:38;8.10;99.90
18948;DHT22;9607;51.600;7.558;2023-02-11T10:27:14;8.20;99.90
18948;DHT22;9607;51.600;7.558;2023-02-11T10:29:45;8.30;99.90
18948;DHT22;9607;51.600;7.558;2023-02-11T10:32:25;8.30;99.90
18948;DHT22;9607;51.600;7.558;2023-02-11T10:34:57;8.30;99.90
18948;DHT22;9607;51.600;7.558;2023-02-11T10:37:27;8.30;99.90
18948;DHT22;9607;51.600;7.558;2023-02-11T10:39:53;8.30;99.90
18948;DHT22;9607;51.600;7.558;2023-02-11T10:42:20;8.40;99.90
18948;DHT22;9607;51.600;7.558;2023-02-11T10:44:56;8.40;99.90
18948;DHT22;9607;51.600;7.558;2023-02-11T10:47:26;8.50;99.90
18948;DHT22;9607;51.600;7.558;2023-02-11T10:49:54;8.40;99.90
18948;DHT22;9607;51.600;7.558;2023-02-11T10:52:29;8.40;99.90
18948;DHT22;9607;51.600;7.558;2023-02-11T10:55:02;8.40;99.90
18948;DHT22;9607;51.600;7.558;2023-02-11T10:57:32;8.40;99.90
18948;DHT22;9607;51.600;7.558;2023-02-11T11:00:05;8.30;99.90
18948;DHT22;9607;51.600;7.558;2023-02-11T11:02:35;8.30;99.90
18948;DHT22;9607;51.600;7.558;2023-02-11T11:05:06;8.30;99.90
18948;DHT22;9607;51.600;7.558;2023-02-11T11:07:51;8.30;99.90
18948;DHT22;9607;51.600;7.558;2023-02-11T11:10:31;8.30;99.90
18948;DHT22;9607;51.600;7.558;2023-02-11T11:13:00;8.30;99.90
18948;DHT22;9607;51.600;7.558;2023-02-11T11:15:28;8.40;99.90
18948;DHT22;9607;51.600;7.558;2023-02-11T11:18:11;8.40;99.90
18948;DHT22;9607;51.600;7.558;2023-02-11T11:20:43;8.40;99.90
18948;DHT22;9607;51.600;7.558;2023-02-11T11:23:16;8.40;99.90
18948;DHT22;9607;51.600;7.558;2023-02-11T11:25:56;8.40;99.90
18948;DHT22;9607;51.600;7.558;2023-02-11T11:28:27;8.40;99.90
18948;DHT22;9607;51.600;7.558;2023-02-11T11:30:56;8.40;99.90
18948;DHT22;9607;51.600;7.558;2023-02-11T11:33:27;8.50;99.90
18948;DHT22;9607;51.600;7.558;2023-02-11T11:36:03;8.50;99.90
18948;DHT22;9607;51.600;7.558;2023-02-11T11:38:35;8.60;99.90
18948;DHT22;9607;51.600;7.558;2023-02-11T11:41:17;8.60;99.90
18948;DHT22;9607;51.600;7.558;2023-02-11T11:44:03;8.60;99.90
18948;DHT22;9607;51.600;7.558;2023-02-11T11:46:33;8.60;99.90
18948;DHT22;9607;51.600;7.558;2023-02-11T11:49:16;8.70;99.90
18948;DHT22;9607;51.600;7.558;2023-02-11T11:51:50;8.80;99.90
18948;DHT22;9607;51.600;7.558;2023-02-11T11:54:24;8.80;99.90
18948;DHT22;9607;51.600;7.558;2023-02-11T11:56:57;8.70;99.90
18948;DHT22;9607;51.600;7.558;2023-02-11T11:59:27;8.70;99.90
18948;DHT22;9607;51.600;7.558;2023-02-11T12:02:10;8.60;99.90
18948;DHT22;9607;51.600;7.558;2023-02-11T12:05:02;8.60;99.90
18948;DHT22;9607;51.600;7.558;2023-02-11T12:07:46;8.70;99.90
18948;DHT22;9607;51.600;7.558;2023-02-11T12:10:31;8.70;99.90
18948;DHT22;9607;51.600;7.558;2023-02-11T12:13:10;8.80;99.90
18948;DHT22;9607;51.600;7.558;2023-02-11T12:15:51;8.80;99.90
18948;DHT22;9607;51.600;7.558;2023-02-11T12:18:50;8.80;99.90
18948;DHT22;9607;51.600;7.558;2023-02-11T12:21:36;8.80;99.90
18948;DHT22;9607;51.600;7.558;2023-02-11T12:24:27;8.80;99.90
18948;DHT22;9607;51.600;7.558;2023-02-11T12:27:02;8.90;99.90
18948;DHT22;9607;51.600;7.558;2023-02-11T12:29:36;8.90;99.90
18948;DHT22;9607;51.600;7.558;2023-02-11T12:32:16;8.90;99.90
18948;DHT22;9607;51.600;7.558;2023-02-11T12:38:02;8.90;99.90
18948;DHT22;9607;51.600;7.558;2023-02-11T12:40:38;8.80;99.90
18948;DHT22;9607;51.600;7.558;2023-02-11T12:43:20;8.80;99.90
18948;DHT22;9607;51.600;7.558;2023-02-11T12:51:48;8.80;99.90
18948;DHT22;9607;51.600;7.558;2023-02-11T12:54:22;8.70;99.90
18948;DHT22;9607;51.600;7.558;2023-02-11T12:56:52;8.70;99.90
18948;DHT22;9607;51.600;7.558;2023-02-11T12:59:30;8.80;99.90
18948;DHT22;9607;51.600;7.558;2023-02-11T13:02:01;8.80;99.90
18948;DHT22;9607;51.600;7.558;2023-02-11T13:04:34;8.90;99.90
18948;DHT22;9607;51.600;7.558;2023-02-11T13:07:04;8.90;99.90
18948;DHT22;9607;51.600;7.558;2023-02-11T13:09:37;8.90;99.90
18948;DHT22;9607;51.600;7.558;2023-02-11T13:12:11;8.90;99.90
18948;DHT22;9607;51.600;7.558;2023-02-11T13:15:02;8.90;99.90
18948;DHT22;9607;51.600;7.558;2023-02-11T13:17:33;8.90;99.90
18948;DHT22;9607;51.600;7.558;2023-02-11T13:20:13;8.90;99.90
18948;DHT22;9607;51.600;7.558;2023-02-11T13:22:43;9.00;99.90
18948;DHT22;9607;51.600;7.558;2023-02-11T13:25:18;9.00;99.90
18948;DHT22;9607;51.600;7.558;2023-02-11T13:27:54;8.90;99.90
18948;DHT22;9607;51.600;7.558;2023-02-11T13:30:26;8.90;99.90
18948;DHT22;9607;51.600;7.558;2023-02-11T13:33:04;9.00;99.90
18948;DHT22;9607;51.600;7.558;2023-02-11T13:35:33;9.00;99.90
18948;DHT22;9607;51.600;7.558;2023-02-11T13:38:02;9.10;99.90
18948;DHT22;9607;51.600;7.558;2023-02-11T13:40:32;9.20;99.90
18948;DHT22;9607;51.600;7.558;2023-02-11T13:43:02;9.40;99.90
18948;DHT22;9607;51.600;7.558;2023-02-11T13:45:34;9.40;99.90
18948;DHT22;9607;51.600;7.558;2023-02-11T13:48:05;9.50;99.90
18948;DHT22;9607;51.600;7.558;2023-02-11T13:50:37;9.50;99.90
18948;DHT22;9607;51.600;7.558;2023-02-11T13:53:05;9.60;99.90
18948;DHT22;9607;51.600;7.558;2023-02-11T13:55:33;9.70;99.90
18948;DHT22;9607;51.600;7.558;2023-02-11T13:58:18;9.70;99.90
18948;DHT22;9607;51.600;7.558;2023-02-11T14:00:59;9.80;99.90
18948;DHT22;9607;51.600;7.558;2023-02-11T14:03:35;9.90;99.90
18948;DHT22;9607;51.600;7.558;2023-02-11T14:06:22;9.90;99.90
18948;DHT22;9607;51.600;7.558;2023-02-11T14:12:20;10.20;99.90
18948;DHT22;9607;51.600;7.558;2023-02-11T14:17:45;10.20;99.90
18948;DHT22;9607;51.600;7.558;2023-02-11T14:20:45;10.30;99.90
18948;DHT22;9607;51.600;7.558;2023-02-11T14:23:25;10.40;99.90
18948;DHT22;9607;51.600;7.558;2023-02-11T14:26:07;10.40;99.90
18948;DHT22;9607;51.600;7.558;2023-02-11T14:28:41;10.40;99.90
18948;DHT22;9607;51.600;7.558;2023-02-11T14:31:13;10.40;99.90
18948;DHT22;9607;51.600;7.558;2023-02-11T14:34:06;10.30;99.90
18948;DHT22;9607;51.600;7.558;2023-02-11T14:36:53;10.30;99.90
18948;DHT22;9607;51.600;7.558;2023-02-11T14:39:36;10.20;99.90
18948;DHT22;9607;51.600;7.558;2023-02-11T14:42:14;10.20;99.90
18948;DHT22;9607;51.600;7.558;2023-02-11T14:44:43;10.20;99.90
18948;DHT22;9607;51.600;7.558;2023-02-11T14:47:17;10.10;99.90
18948;DHT22;9607;51.600;7.558;2023-02-11T14:49:47;10.00;99.90
18948;DHT22;9607;51.600;7.558;2023-02-11T14:52:20;10.00;99.90
18948;DHT22;9607;51.600;7.558;2023-02-11T14:54:50;10.00;99.90
18948;DHT22;9607;51.600;7.558;2023-02-11T14:57:19;10.00;99.90
18948;DHT22;9607;51.600;7.558;2023-02-11T14:59:57;10.00;99.90
18948;DHT22;9607;51.600;7.558;2023-02-11T15:02:31;10.10;99.90
18948;DHT22;9607;51.600;7.558;2023-02-11T15:05:20;10.00;99.90
18948;DHT22;9607;51.600;7.558;2023-02-11T15:07:52;10.00;99.90
18948;DHT22;9607;51.600;7.558;2023-02-11T15:10:25;9.90;99.90
18948;DHT22;9607;51.600;7.558;2023-02-11T15:12:54;9.90;99.90
18948;DHT22;9607;51.600;7.558;2023-02-11T15:15:21;9.80;99.90
18948;DHT22;9607;51.600;7.558;2023-02-11T15:17:48;9.80;99.90
18948;DHT22;9607;51.600;7.558;2023-02-11T15:20:21;9.90;99.90
18948;DHT22;9607;51.600;7.558;2023-02-11T15:22:53;9.90;99.90
18948;DHT22;9607;51.600;7.558;2023-02-11T15:25:21;9.90;99.90
18948;DHT22;9607;51.600;7.558;2023-02-11T15:27:50;9.80;99.90
18948;DHT22;9607;51.600;7.558;2023-02-11T15:30:24;9.80;99.90
18948;DHT22;9607;51.600;7.558;2023-02-11T15:32:53;9.80;99.90
18948;DHT22;9607;51.600;7.558;2023-02-11T15:35:25;9.70;99.90
18948;DHT22;9607;51.600;7.558;2023-02-11T15:37:53;9.70;99.90
18948;DHT22;9607;51.600;7.558;2023-02-11T15:40:22;9.70;99.90
18948;DHT22;9607;51.600;7.558;2023-02-11T15:42:55;9.60;99.90
18948;DHT22;9607;51.600;7.558;2023-02-11T15:45:24;9.60;99.90
18948;DHT22;9607;51.600;7.558;2023-02-11T15:47:56;9.50;99.90
18948;DHT22;9607;51.600;7.558;2023-02-11T15:50:27;9.50;99.90
18948;DHT22;9607;51.600;7.558;2023-02-11T15:52:55;9.50;99.90
18948;DHT22;9607;51.600;7.558;2023-02-11T15:55:23;9.50;99.90
18948;DHT22;9607;51.600;7.558;2023-02-11T15:57:53;9.50;99.90
18948;DHT22;9607;51.600;7.558;2023-02-11T16:00:23;9.50;99.90
18948;DHT22;9607;51.600;7.558;2023-02-11T16:02:52;9.50;99.90
18948;DHT22;9607;51.600;7.558;2023-02-11T16:05:32;9.50;99.90
18948;DHT22;9607;51.600;7.558;2023-02-11T16:08:00;9.40;99.90
18948;DHT22;9607;51.600;7.558;2023-02-11T16:10:37;9.30;99.90
18948;DHT22;9607;51.600;7.558;2023-02-11T16:13:17;9.30;99.90
18948;DHT22;9607;51.600;7.558;2023-02-11T16:15:49;9.30;99.90
18948;DHT22;9607;51.600;7.558;2023-02-11T16:18:35;9.30;99.90
18948;DHT22;9607;51.600;7.558;2023-02-11T16:21:06;9.30;99.90
18948;DHT22;9607;51.600;7.558;2023-02-11T16:23:35;9.30;99.90
18948;DHT22;9607;51.600;7.558;2023-02-11T16:26:06;9.30;99.90
18948;DHT22;9607;51.600;7.558;2023-02-11T16:28:34;9.20;99.90
18948;DHT22;9607;51.600;7.558;2023-02-11T16:31:03;9.20;99.90
18948;DHT22;9607;51.600;7.558;2023-02-11T16:33:30;9.20;99.90
18948;DHT22;9607;51.600;7.558;2023-02-11T16:35:57;9.20;99.90
18948;DHT22;9607;51.600;7.558;2023-02-11T16:38:29;9.20;99.90
18948;DHT22;9607;51.600;7.558;2023-02-11T16:40:57;9.20;99.90
18948;DHT22;9607;51.600;7.558;2023-02-11T16:43:24;9.20;99.90
18948;DHT22;9607;51.600;7.558;2023-02-11T16:45:51;9.20;99.90